createdAt,value
2024-01-31T00:01:04.555Z,21.40
2024-01-31T00:04:06.489Z,26.87
2024-01-31T00:07:08.187Z,30.33
2024-01-31T00:10:10.813Z,29.17
2024-01-31T00:13:12.488Z,30.03
2024-01-31T00:16:15.161Z,30.33
2024-01-31T00:19:16.963Z,32.30
2024-01-31T00:22:18.795Z,24.80
2024-01-31T00:25:20.491Z,32.93
2024-01-31T00:28:22.171Z,28.00
2024-01-31T00:31:23.897Z,33.53
2024-01-31T00:34:25.658Z,36.20
2024-01-31T00:37:27.350Z,32.53
2024-01-31T00:40:29.006Z,36.07
2024-01-31T00:43:30.715Z,40.03
2024-01-31T00:46:32.393Z,39.67
2024-01-31T00:49:34.285Z,36.83
2024-01-31T00:52:36.076Z,37.10
2024-01-31T00:55:37.765Z,32.73
2024-01-31T00:58:39.655Z,40.23
2024-01-31T01:01:41.404Z,39.17
2024-01-31T01:04:43.599Z,33.53
2024-01-31T01:07:46.786Z,39.00
2024-01-31T01:10:48.582Z,36.40
2024-01-31T01:13:50.557Z,36.27
2024-01-31T01:16:52.224Z,37.33
2024-01-31T01:19:53.947Z,39.77
2024-01-31T01:22:56.728Z,38.13
2024-01-31T01:25:58.380Z,39.17
2024-01-31T01:29:00.011Z,38.90
2024-01-31T01:32:01.629Z,35.17
2024-01-31T01:35:03.631Z,40.63
2024-01-31T01:38:05.407Z,33.97
2024-01-31T01:41:07.018Z,35.63
2024-01-31T01:44:08.779Z,37.87
2024-01-31T01:47:10.778Z,32.07
2024-01-31T01:50:12.697Z,35.77
2024-01-31T01:53:14.407Z,35.50
2024-01-31T01:56:16.494Z,39.13
2024-01-31T01:59:18.437Z,31.47
2024-01-31T02:02:20.074Z,36.50
2024-01-31T02:05:21.844Z,37.93
2024-01-31T02:08:23.948Z,33.50
2024-01-31T02:11:25.583Z,43.20
2024-01-31T02:14:27.227Z,36.90
2024-01-31T02:17:29.146Z,40.83
2024-01-31T02:20:30.815Z,39.90
2024-01-31T02:23:32.424Z,40.90
2024-01-31T02:26:35.020Z,40.53
2024-01-31T02:29:38.945Z,38.13
2024-01-31T02:32:40.527Z,36.40
2024-01-31T02:35:42.159Z,36.43
2024-01-31T02:38:43.779Z,36.03
2024-01-31T02:41:45.407Z,35.87
2024-01-31T02:44:47.049Z,38.50
2024-01-31T02:47:48.745Z,42.37
2024-01-31T02:50:50.388Z,39.17
2024-01-31T02:53:52.282Z,38.43
2024-01-31T02:56:54.021Z,38.47
2024-01-31T02:59:55.644Z,38.10
2024-01-31T03:02:57.262Z,36.47
2024-01-31T03:05:59.017Z,35.53
2024-01-31T03:09:00.701Z,43.80
2024-01-31T03:12:05.491Z,38.93
2024-01-31T03:15:07.459Z,38.27
2024-01-31T03:18:09.315Z,36.97
2024-01-31T03:21:11.045Z,37.70
2024-01-31T03:24:13.453Z,38.87
2024-01-31T03:27:17.019Z,37.17
2024-01-31T03:30:18.925Z,35.50
2024-01-31T03:33:20.834Z,45.37
2024-01-31T03:36:22.573Z,45.03
2024-01-31T03:39:24.196Z,38.23
2024-01-31T03:42:25.919Z,39.20
2024-01-31T03:45:27.583Z,41.90
2024-01-31T03:48:29.823Z,47.50
2024-01-31T03:51:31.478Z,41.60
2024-01-31T03:54:33.098Z,37.73
2024-01-31T03:57:34.736Z,39.30
2024-01-31T04:00:36.343Z,39.97
2024-01-31T04:03:39.133Z,36.40
2024-01-31T04:06:40.744Z,33.90
2024-01-31T04:09:42.379Z,36.53
2024-01-31T04:12:44.229Z,36.00
2024-01-31T04:15:46.709Z,32.87
2024-01-31T04:18:48.427Z,30.77
2024-01-31T04:21:50.134Z,31.70
2024-01-31T04:24:53.003Z,34.57
2024-01-31T04:27:54.656Z,36.27
2024-01-31T04:30:56.286Z,37.33
2024-01-31T04:33:58.012Z,43.47
2024-01-31T04:36:59.730Z,41.53
2024-01-31T04:40:01.438Z,49.80
2024-01-31T04:43:03.245Z,46.10
2024-01-31T04:46:05.256Z,48.77
2024-01-31T04:49:07.070Z,43.07
2024-01-31T04:52:08.919Z,44.50
2024-01-31T04:55:10.684Z,255.77
2024-01-31T04:58:14.921Z,166.53
2024-01-31T05:01:16.651Z,157.03
2024-01-31T05:04:18.766Z,136.73
2024-01-31T05:07:20.505Z,129.53
2024-01-31T05:10:22.345Z,90.40
2024-01-31T05:13:24.087Z,130.37
2024-01-31T05:16:25.777Z,79.63
2024-01-31T05:19:30.848Z,65.20
2024-01-31T05:22:33.035Z,72.83
2024-01-31T05:25:34.971Z,102.67
2024-01-31T05:28:38.080Z,63.60
2024-01-31T05:31:39.915Z,76.47
2024-01-31T05:34:45.222Z,55.67
2024-01-31T05:37:47.086Z,46.60
2024-01-31T05:40:48.762Z,53.87
2024-01-31T05:43:50.499Z,44.33
2024-01-31T05:46:52.174Z,96.90
2024-01-31T05:49:53.885Z,76.57
2024-01-31T05:52:55.644Z,58.17
2024-01-31T05:55:58.522Z,51.33
2024-01-31T05:59:00.285Z,55.70
2024-01-31T06:02:02.029Z,47.17
2024-01-31T06:05:03.897Z,40.30
2024-01-31T06:08:08.294Z,38.70
2024-01-31T06:11:10.237Z,44.67
2024-01-31T06:14:11.848Z,46.57
2024-01-31T06:17:15.687Z,40.17
2024-01-31T06:20:17.456Z,47.20
2024-01-31T06:23:22.344Z,38.93
2024-01-31T06:26:25.686Z,54.63
2024-01-31T06:29:27.369Z,87.27
2024-01-31T06:32:36.441Z,45.87
2024-01-31T06:35:41.462Z,46.13
2024-01-31T06:38:43.102Z,80.20
2024-01-31T06:41:45.206Z,123.37
2024-01-31T06:44:47.009Z,184.17
2024-01-31T06:47:48.803Z,81.77
2024-01-31T06:50:52.678Z,115.57
2024-01-31T06:53:54.395Z,93.23
2024-01-31T06:56:56.095Z,94.93
2024-01-31T06:59:57.830Z,44.57
2024-01-31T07:02:59.544Z,34.23
2024-01-31T07:06:01.241Z,40.50
2024-01-31T07:09:02.930Z,38.77
2024-01-31T07:12:05.169Z,38.57
2024-01-31T07:15:07.485Z,35.90
2024-01-31T07:18:09.458Z,35.30
2024-01-31T07:21:14.487Z,36.33
2024-01-31T07:24:24.614Z,34.53
2024-01-31T07:27:31.033Z,40.70
2024-01-31T07:30:33.642Z,39.10
2024-01-31T07:33:36.241Z,36.73
2024-01-31T07:36:37.969Z,58.13
2024-01-31T07:39:39.615Z,35.17
2024-01-31T07:42:41.326Z,37.27
2024-01-31T07:45:43.125Z,33.90
2024-01-31T07:48:44.759Z,37.57
2024-01-31T07:51:46.479Z,36.00
2024-01-31T07:54:48.430Z,35.73
2024-01-31T07:57:50.445Z,52.20
2024-01-31T08:00:55.343Z,49.67
2024-01-31T08:03:57.096Z,38.50
2024-01-31T08:06:59.173Z,33.17
2024-01-31T08:10:00.884Z,30.93
2024-01-31T08:13:04.891Z,36.40
2024-01-31T08:16:13.509Z,30.50
2024-01-31T08:19:15.446Z,28.30
2024-01-31T08:22:17.240Z,26.13
2024-01-31T08:25:19.420Z,24.47
2024-01-31T08:28:21.159Z,38.83
2024-01-31T08:31:23.215Z,24.43
2024-01-31T08:34:28.414Z,30.40
2024-01-31T08:37:32.719Z,25.70
2024-01-31T08:40:34.475Z,22.00
2024-01-31T08:43:36.384Z,20.57
2024-01-31T08:46:48.065Z,19.30
2024-01-31T08:49:59.911Z,15.73
2024-01-31T08:53:02.357Z,13.57
2024-01-31T08:56:09.020Z,16.40
2024-01-31T08:59:11.462Z,18.90
2024-01-31T09:02:13.213Z,16.27
2024-01-31T09:05:15.072Z,15.60
2024-01-31T09:08:16.781Z,14.00
2024-01-31T09:11:19.264Z,18.00
2024-01-31T09:14:20.888Z,15.47
2024-01-31T09:17:22.569Z,16.60
2024-01-31T09:20:24.270Z,15.40
2024-01-31T09:23:25.976Z,13.90
2024-01-31T09:26:27.828Z,15.90
2024-01-31T09:29:29.509Z,15.80
2024-01-31T09:32:31.122Z,10.80
2024-01-31T09:35:32.942Z,12.20
2024-01-31T09:38:36.223Z,11.57
2024-01-31T09:41:37.887Z,9.20
2024-01-31T09:44:40.553Z,8.27
2024-01-31T09:47:46.936Z,8.13
2024-01-31T09:50:49.419Z,8.93
2024-01-31T09:53:54.720Z,6.37
2024-01-31T09:56:56.648Z,6.43
2024-01-31T10:00:01.776Z,5.20
2024-01-31T10:03:05.720Z,5.63
2024-01-31T10:06:09.930Z,4.50
2024-01-31T10:09:13.980Z,5.63
2024-01-31T10:12:18.563Z,5.90
2024-01-31T10:15:20.431Z,3.00
2024-01-31T10:18:23.296Z,3.00
2024-01-31T10:21:24.939Z,3.23
2024-01-31T10:24:26.695Z,3.20
2024-01-31T10:27:28.516Z,2.13
2024-01-31T10:30:30.211Z,3.60
2024-01-31T10:33:33.653Z,2.63
2024-01-31T10:39:42.847Z,2.77
2024-01-31T10:42:48.480Z,2.07
2024-01-31T10:45:50.453Z,2.70
2024-01-31T10:48:52.739Z,2.23
2024-01-31T10:51:58.705Z,3.17
2024-01-31T10:55:04.314Z,3.00
2024-01-31T10:58:07.173Z,2.50
2024-01-31T11:01:13.444Z,2.63
2024-01-31T11:04:15.127Z,3.50
2024-01-31T11:07:23.037Z,2.23
2024-01-31T11:10:27.067Z,3.60
2024-01-31T11:13:28.765Z,1.97
2024-01-31T11:16:30.388Z,1.90
2024-01-31T11:19:35.295Z,4.70
2024-01-31T11:22:37.000Z,1.30
2024-01-31T11:25:39.873Z,4.17
2024-01-31T11:28:43.487Z,3.63
2024-01-31T11:31:45.609Z,1.77
2024-01-31T11:34:59.501Z,1.73
2024-01-31T11:38:02.030Z,1.80
2024-01-31T11:41:04.072Z,2.10
2024-01-31T11:44:05.877Z,1.90
2024-01-31T11:47:07.673Z,3.40
2024-01-31T11:50:09.867Z,1.43
2024-01-31T11:53:11.778Z,1.57
2024-01-31T11:56:13.836Z,4.10
2024-01-31T11:59:15.691Z,3.00
2024-01-31T12:02:17.766Z,2.00
2024-01-31T12:05:19.820Z,2.67
2024-01-31T12:08:27.852Z,1.37
2024-01-31T12:11:29.777Z,1.80
2024-01-31T12:14:31.479Z,2.37
2024-01-31T12:17:33.345Z,2.93
2024-01-31T12:20:35.632Z,2.33
2024-01-31T12:23:37.667Z,2.50
2024-01-31T12:26:39.465Z,3.03
2024-01-31T12:29:41.252Z,3.43
2024-01-31T12:32:42.917Z,3.70
2024-01-31T12:35:45.757Z,4.13
2024-01-31T12:38:47.775Z,3.97
2024-01-31T12:41:51.279Z,7.07
2024-01-31T12:44:53.455Z,2.93
2024-01-31T12:47:55.496Z,3.37
2024-01-31T12:50:58.099Z,2.97
2024-01-31T12:53:59.917Z,3.50
2024-01-31T12:57:01.927Z,8.37
2024-01-31T13:00:05.320Z,4.30
2024-01-31T13:03:07.184Z,3.90
2024-01-31T13:06:13.033Z,3.70
2024-01-31T13:09:16.138Z,4.70
2024-01-31T13:12:17.894Z,5.30
2024-01-31T13:15:20.814Z,4.40
2024-01-31T13:18:22.728Z,3.97
2024-01-31T13:21:24.461Z,10.20
2024-01-31T13:24:26.221Z,5.97
2024-01-31T13:27:27.917Z,5.77
2024-01-31T13:30:29.644Z,2.17
2024-01-31T13:33:31.652Z,2.73
2024-01-31T13:36:33.455Z,4.47
2024-01-31T13:39:35.082Z,4.50
2024-01-31T13:42:36.952Z,4.70
2024-01-31T13:45:38.817Z,2.90
2024-01-31T13:48:40.494Z,2.70
2024-01-31T13:51:43.597Z,3.13
2024-01-31T13:54:45.398Z,2.90
2024-01-31T13:57:47.928Z,2.37
2024-01-31T14:00:49.638Z,3.63
2024-01-31T14:03:51.504Z,2.03
2024-01-31T14:06:54.276Z,3.73
2024-01-31T14:09:56.012Z,1.60
2024-01-31T14:12:57.681Z,3.90
2024-01-31T14:15:59.470Z,2.80
2024-01-31T14:19:01.289Z,1.80
2024-01-31T14:22:12.813Z,3.27
2024-01-31T14:25:21.992Z,1.60
2024-01-31T14:28:23.764Z,1.30
2024-01-31T14:31:25.521Z,6.80
2024-01-31T14:34:27.492Z,3.20
2024-01-31T14:37:29.220Z,2.17
2024-01-31T14:40:30.985Z,4.60
2024-01-31T14:43:34.236Z,3.20
2024-01-31T14:46:35.945Z,4.83
2024-01-31T14:49:37.744Z,4.07
2024-01-31T14:52:40.385Z,4.03
2024-01-31T14:55:42.533Z,2.00
2024-01-31T14:58:44.136Z,1.70
2024-01-31T15:01:47.568Z,4.33
2024-01-31T15:04:49.187Z,4.33
2024-01-31T15:07:50.850Z,1.90
2024-01-31T15:10:52.466Z,2.20
2024-01-31T15:13:54.161Z,1.67
2024-01-31T15:16:55.868Z,3.03
2024-01-31T15:19:57.619Z,2.00
2024-01-31T15:23:00.446Z,2.40
2024-01-31T15:26:02.585Z,1.77
2024-01-31T15:29:04.329Z,3.33
2024-01-31T15:32:06.765Z,6.37
2024-01-31T15:35:12.128Z,6.20
2024-01-31T15:38:13.796Z,3.70
2024-01-31T15:41:16.062Z,6.90
2024-01-31T15:44:24.005Z,4.73
2024-01-31T15:47:25.999Z,3.70
2024-01-31T15:50:27.780Z,5.20
2024-01-31T15:53:29.426Z,2.33
2024-01-31T15:56:31.123Z,3.60
2024-01-31T15:59:33.608Z,4.53
2024-01-31T16:02:35.302Z,4.63
2024-01-31T16:05:37.044Z,2.07
2024-01-31T16:08:38.713Z,2.73
2024-01-31T16:11:42.908Z,4.00
2024-01-31T16:14:44.670Z,3.60
2024-01-31T16:17:47.344Z,5.80
2024-01-31T16:20:49.443Z,2.67
2024-01-31T16:23:51.285Z,5.80
2024-01-31T16:26:53.247Z,12.40
2024-01-31T16:29:55.366Z,8.43
2024-01-31T16:32:57.138Z,7.37
2024-01-31T16:35:59.957Z,7.00
2024-01-31T16:39:02.068Z,3.97
2024-01-31T16:42:04.587Z,4.53
2024-01-31T16:45:08.710Z,8.37
2024-01-31T16:48:11.941Z,5.50
2024-01-31T16:51:13.740Z,3.73
2024-01-31T16:54:15.438Z,5.90
2024-01-31T16:57:17.355Z,8.80
2024-01-31T17:00:19.424Z,2.87
2024-01-31T17:03:22.308Z,5.20
2024-01-31T17:06:24.047Z,9.30
2024-01-31T17:09:25.716Z,11.30
2024-01-31T17:12:27.367Z,2.87
2024-01-31T17:15:29.126Z,4.80
2024-01-31T17:18:30.878Z,3.70
2024-01-31T17:21:32.606Z,3.73
2024-01-31T17:24:36.157Z,5.77
2024-01-31T17:27:39.655Z,5.93
2024-01-31T17:30:41.757Z,2.87
2024-01-31T17:33:44.647Z,5.67
2024-01-31T17:36:47.270Z,4.10
2024-01-31T17:39:48.925Z,6.93
2024-01-31T17:42:50.655Z,6.50
2024-01-31T17:45:53.866Z,3.80
2024-01-31T17:48:55.670Z,4.87
2024-01-31T17:51:57.532Z,4.50
2024-01-31T17:54:59.136Z,3.90
2024-01-31T17:58:04.215Z,8.27
2024-01-31T18:01:05.948Z,5.53
2024-01-31T18:04:09.285Z,7.33
2024-01-31T18:07:10.942Z,6.83
2024-01-31T18:10:12.696Z,11.27
2024-01-31T18:13:14.332Z,9.80
2024-01-31T18:16:16.043Z,7.30
2024-01-31T18:19:17.685Z,6.77
2024-01-31T18:22:19.463Z,6.70
2024-01-31T18:25:21.162Z,7.37
2024-01-31T18:28:24.281Z,7.87
2024-01-31T18:31:27.230Z,7.00
2024-01-31T18:34:28.980Z,8.30
2024-01-31T18:37:30.684Z,7.50
2024-01-31T18:40:32.736Z,7.67
2024-01-31T18:43:35.283Z,6.90
2024-01-31T18:46:39.186Z,6.83
2024-01-31T18:49:41.078Z,22.50
2024-01-31T18:52:43.169Z,9.60
2024-01-31T18:55:44.893Z,12.90
2024-01-31T18:58:46.518Z,10.10
2024-01-31T19:01:48.130Z,11.17
2024-01-31T19:04:56.019Z,12.17
2024-01-31T19:08:01.850Z,15.57
2024-01-31T19:11:03.582Z,10.30
2024-01-31T19:14:06.714Z,11.90
2024-01-31T19:17:18.478Z,14.07
2024-01-31T19:20:25.938Z,13.40
2024-01-31T19:23:27.775Z,11.40
2024-01-31T19:26:29.780Z,13.37
2024-01-31T19:29:33.523Z,10.77
2024-01-31T19:32:35.218Z,12.07
2024-01-31T19:35:37.046Z,12.50
2024-01-31T19:38:38.707Z,11.80
2024-01-31T19:41:41.109Z,11.60
2024-01-31T19:44:43.719Z,11.27
2024-01-31T19:47:45.466Z,10.13
2024-01-31T19:50:47.238Z,14.23
2024-01-31T19:53:52.609Z,12.03
2024-01-31T19:56:55.453Z,12.37
2024-01-31T19:59:57.341Z,13.67
2024-01-31T20:02:59.098Z,10.47
2024-01-31T20:06:01.031Z,12.03
2024-01-31T20:09:05.693Z,11.83
2024-01-31T20:12:07.922Z,10.87
2024-01-31T20:15:10.073Z,9.53
2024-01-31T20:18:13.038Z,14.50
2024-01-31T20:21:15.069Z,11.93
2024-01-31T20:24:16.910Z,11.00
2024-01-31T20:27:18.960Z,13.60
2024-01-31T20:30:22.035Z,11.37
2024-01-31T20:33:23.801Z,12.70
2024-01-31T20:36:25.538Z,13.57
2024-01-31T20:39:27.158Z,11.17
2024-01-31T20:42:28.812Z,16.07
2024-01-31T20:45:32.329Z,12.73
2024-01-31T20:48:40.750Z,11.27
2024-01-31T20:51:43.348Z,11.60
2024-01-31T20:54:45.193Z,10.57
2024-01-31T20:57:46.950Z,9.70
2024-01-31T21:00:48.776Z,11.73
2024-01-31T21:03:50.558Z,12.33
2024-01-31T21:06:52.510Z,10.53
2024-01-31T21:09:54.249Z,16.43
2024-01-31T21:12:55.856Z,11.60
2024-01-31T21:15:57.535Z,14.57
2024-01-31T21:18:59.548Z,12.27
2024-01-31T21:22:01.320Z,12.40
2024-01-31T21:25:04.381Z,9.77
2024-01-31T21:28:06.361Z,12.10
2024-01-31T21:31:08.006Z,11.17
2024-01-31T21:34:09.783Z,9.13
2024-01-31T21:37:11.667Z,7.97
2024-01-31T21:40:14.385Z,10.60
2024-01-31T21:43:16.013Z,11.70
2024-01-31T21:46:17.657Z,11.17
2024-01-31T21:49:19.367Z,8.50
2024-01-31T21:52:21.039Z,9.77
2024-01-31T21:55:23.090Z,14.93
2024-01-31T21:58:24.704Z,9.83
2024-01-31T22:01:26.614Z,9.70
2024-01-31T22:04:32.650Z,11.80
2024-01-31T22:07:35.408Z,8.97
2024-01-31T22:10:37.053Z,9.00
2024-01-31T22:13:39.148Z,10.30
2024-01-31T22:16:40.849Z,9.30
2024-01-31T22:19:42.893Z,13.80
2024-01-31T22:22:44.505Z,9.57
2024-01-31T22:25:46.181Z,9.37
2024-01-31T22:28:47.787Z,12.13
2024-01-31T22:31:49.422Z,10.77
2024-01-31T22:34:51.053Z,11.30
2024-01-31T22:37:52.706Z,12.03
2024-01-31T22:40:56.555Z,11.60
2024-01-31T22:44:04.693Z,10.30
2024-01-31T22:47:06.718Z,9.97
2024-01-31T22:50:08.831Z,9.90
2024-01-31T22:53:10.601Z,9.87
2024-01-31T22:56:12.256Z,8.33
2024-01-31T22:59:14.049Z,9.53
2024-01-31T23:02:16.103Z,7.27
2024-01-31T23:05:17.859Z,8.50
2024-01-31T23:08:19.583Z,8.50
2024-01-31T23:11:21.500Z,8.20
2024-01-31T23:14:23.223Z,7.67
2024-01-31T23:17:25.030Z,8.77
2024-01-31T23:20:26.769Z,6.10
2024-01-31T23:23:28.484Z,6.93
2024-01-31T23:26:30.132Z,4.63
2024-01-31T23:29:31.831Z,3.43
2024-01-31T23:32:33.559Z,3.43
2024-01-31T23:35:35.317Z,4.60
2024-01-31T23:38:37.067Z,3.90
2024-01-31T23:41:38.792Z,3.93
2024-01-31T23:44:40.466Z,5.17
2024-01-31T23:47:42.310Z,4.67
2024-01-31T23:50:44.102Z,5.47
2024-01-31T23:53:45.987Z,3.63
2024-01-31T23:56:47.951Z,6.00
2024-01-31T23:59:49.688Z,3.90
